sensor_id;sensor_type;location;lat;lon;timestamp;pressure;altitude;pressure_sealevel;temperature;humidity
34185;BME280;20454;48.100;11.776;2023-01-29T00:01:06;96295.09;;;0.52;100.00
34185;BME280;20454;48.100;11.776;2023-01-29T00:03:32;96296.50;;;0.55;100.00
34185;BME280;20454;48.100;11.776;2023-01-29T00:05:58;96299.00;;;0.56;100.00
34185;BME280;20454;48.100;11.776;2023-01-29T00:08:25;96293.75;;;0.55;100.00
34185;BME280;20454;48.100;11.776;2023-01-29T00:10:51;96292.72;;;0.56;100.00
34185;BME280;20454;48.100;11.776;2023-01-29T00:13:17;96290.44;;;0.53;100.00
34185;BME280;20454;48.100;11.776;2023-01-29T00:15:52;96290.69;;;0.51;100.00
34185;BME280;20454;48.100;11.776;2023-01-29T00:18:18;96294.38;;;0.57;100.00
34185;BME280;20454;48.100;11.776;2023-01-29T00:20:43;96287.47;;;0.54;100.00
34185;BME280;20454;48.100;11.776;2023-01-29T00:23:09;96297.13;;;0.57;100.00
34185;BME280;20454;48.100;11.776;2023-01-29T00:25:34;96292.47;;;0.57;100.00
34185;BME280;20454;48.100;11.776;2023-01-29T00:28:00;96286.91;;;0.52;100.00
34185;BME280;20454;48.100;11.776;2023-01-29T00:30:26;96303.41;;;0.57;100.00
34185;BME280;20454;48.100;11.776;2023-01-29T00:32:51;96304.25;;;0.58;100.00
34185;BME280;20454;48.100;11.776;2023-01-29T00:35:18;96298.44;;;0.54;100.00
34185;BME280;20454;48.100;11.776;2023-01-29T00:37:44;96306.13;;;0.57;100.00
34185;BME280;20454;48.100;11.776;2023-01-29T00:40:10;96308.28;;;0.55;100.00
34185;BME280;20454;48.100;11.776;2023-01-29T00:42:35;96312.47;;;0.58;100.00
34185;BME280;20454;48.100;11.776;2023-01-29T00:45:20;96319.00;;;0.57;100.00
34185;BME280;20454;48.100;11.776;2023-01-29T00:47:45;96307.44;;;0.55;100.00
34185;BME280;20454;48.100;11.776;2023-01-29T00:50:11;96310.81;;;0.57;100.00
34185;BME280;20454;48.100;11.776;2023-01-29T00:52:37;96308.06;;;0.57;100.00
34185;BME280;20454;48.100;11.776;2023-01-29T00:55:06;96310.19;;;0.55;100.00
34185;BME280;20454;48.100;11.776;2023-01-29T00:57:33;96310.81;;;0.57;100.00
34185;BME280;20454;48.100;11.776;2023-01-29T00:59:59;96313.53;;;0.57;100.00
34185;BME280;20454;48.100;11.776;2023-01-29T01:02:24;96311.25;;;0.54;100.00
34185;BME280;20454;48.100;11.776;2023-01-29T01:05:10;96313.78;;;0.55;100.00
34185;BME280;20454;48.100;11.776;2023-01-29T01:07:53;96307.72;;;0.53;100.00
34185;BME280;20454;48.100;11.776;2023-01-29T01:10:30;96303.66;;;0.56;100.00
34185;BME280;20454;48.100;11.776;2023-01-29T01:13:01;96302.25;;;0.53;100.00
34185;BME280;20454;48.100;11.776;2023-01-29T01:15:29;96301.97;;;0.55;100.00
34185;BME280;20454;48.100;11.776;2023-01-29T01:17:57;96306.63;;;0.54;100.00
34185;BME280;20454;48.100;11.776;2023-01-29T01:20:24;96311.25;;;0.54;100.00
34185;BME280;20454;48.100;11.776;2023-01-29T01:22:52;96306.63;;;0.54;100.00
34185;BME280;20454;48.100;11.776;2023-01-29T01:25:19;96312.94;;;0.55;100.00
34185;BME280;20454;48.100;11.776;2023-01-29T01:27:44;96316.75;;;0.54;100.00
34185;BME280;20454;48.100;11.776;2023-01-29T01:30:13;96328.88;;;0.58;100.00
34185;BME280;20454;48.100;11.776;2023-01-29T01:32:39;96307.94;;;0.52;100.00
34185;BME280;20454;48.100;11.776;2023-01-29T01:35:05;96311.88;;;0.56;100.00
34185;BME280;20454;48.100;11.776;2023-01-29T01:37:31;96320.09;;;0.56;100.00
34185;BME280;20454;48.100;11.776;2023-01-29T01:39:57;96309.13;;;0.56;100.00
34185;BME280;20454;48.100;11.776;2023-01-29T01:42:27;96317.34;;;0.56;100.00
34185;BME280;20454;48.100;11.776;2023-01-29T01:44:59;96319.47;;;0.54;100.00
34185;BME280;20454;48.100;11.776;2023-01-29T01:47:40;96306.16;;;0.46;100.00
34185;BME280;20454;48.100;11.776;2023-01-29T01:50:16;96315.06;;;0.53;100.00
34185;BME280;20454;48.100;11.776;2023-01-29T01:52:46;96317.22;;;0.51;100.00
34185;BME280;20454;48.100;11.776;2023-01-29T01:55:14;96313.41;;;0.52;100.00
34185;BME280;20454;48.100;11.776;2023-01-29T01:57:42;96312.84;;;0.50;100.00
34185;BME280;20454;48.100;11.776;2023-01-29T02:00:13;96318.91;;;0.52;100.00
34185;BME280;20454;48.100;11.776;2023-01-29T02:02:41;96315.56;;;0.50;100.00
34185;BME280;20454;48.100;11.776;2023-01-29T02:05:26;96314.50;;;0.51;100.00
34185;BME280;20454;48.100;11.776;2023-01-29T02:08:11;96317.22;;;0.51;100.00
34185;BME280;20454;48.100;11.776;2023-01-29T02:10:56;96316.66;;;0.49;100.00
34185;BME280;20454;48.100;11.776;2023-01-29T02:13:22;96326.53;;;0.50;100.00
34185;BME280;20454;48.100;11.776;2023-01-29T02:15:48;96316.53;;;0.44;100.00
34185;BME280;20454;48.100;11.776;2023-01-29T02:18:15;96321.78;;;0.45;100.00
34185;BME280;20454;48.100;11.776;2023-01-29T02:20:49;96326.16;;;0.46;100.00
34185;BME280;20454;48.100;11.776;2023-01-29T02:26:18;96325.09;;;0.47;100.00
34185;BME280;20454;48.100;11.776;2023-01-29T02:28:53;96335.81;;;0.49;100.00
34185;BME280;20454;48.100;11.776;2023-01-29T02:31:34;96333.31;;;0.47;100.00
34185;BME280;20454;48.100;11.776;2023-01-29T02:34:21;96322.81;;;0.44;100.00
34185;BME280;20454;48.100;11.776;2023-01-29T02:37:07;96322.13;;;0.49;100.00
34185;BME280;20454;48.100;11.776;2023-01-29T02:42:27;96305.47;;;0.39;100.00
34185;BME280;20454;48.100;11.776;2023-01-29T02:45:03;96317.69;;;0.48;100.00
34185;BME280;20454;48.100;11.776;2023-01-29T02:47:41;96315.22;;;0.46;100.00
34185;BME280;20454;48.100;11.776;2023-01-29T02:52:44;96306.03;;;0.41;100.00
34185;BME280;20454;48.100;11.776;2023-01-29T02:55:23;96291.44;;;0.35;100.00
34185;BME280;20454;48.100;11.776;2023-01-29T02:57:51;96306.19;;;0.34;100.00
34185;BME280;20454;48.100;11.776;2023-01-29T07:33:03;96305.34;;;0.22;97.16
34185;BME280;20454;48.100;11.776;2023-01-29T07:35:29;96309.66;;;0.18;97.21
34185;BME280;20454;48.100;11.776;2023-01-29T07:37:55;96309.38;;;0.20;97.32
34185;BME280;20454;48.100;11.776;2023-01-29T07:40:21;96306.91;;;0.18;97.65
34185;BME280;20454;48.100;11.776;2023-01-29T07:42:46;96299.16;;;0.15;97.63
34185;BME280;20454;48.100;11.776;2023-01-29T07:45:12;96299.16;;;0.15;97.10
34185;BME280;20454;48.100;11.776;2023-01-29T07:47:38;96297.50;;;0.14;97.71
34185;BME280;20454;48.100;11.776;2023-01-29T07:50:04;96293.69;;;0.15;97.47
34185;BME280;20454;48.100;11.776;2023-01-29T07:52:31;96295.72;;;0.20;97.68
34185;BME280;20454;48.100;11.776;2023-01-29T07:54:57;96293.22;;;0.18;97.79
34185;BME280;20454;48.100;11.776;2023-01-29T07:57:23;96286.91;;;0.18;97.50
34185;BME280;20454;48.100;11.776;2023-01-29T07:59:49;96282.03;;;0.20;97.21
34185;BME280;20454;48.100;11.776;2023-01-29T11:01:35;96334.69;;;1.12;80.80
34185;BME280;20454;48.100;11.776;2023-01-29T11:04:03;96342.28;;;1.22;80.62
34185;BME280;20454;48.100;11.776;2023-01-29T11:06:34;96345.03;;;1.22;80.48
34185;BME280;20454;48.100;11.776;2023-01-29T11:12:19;96324.78;;;1.23;79.52
34185;BME280;20454;48.100;11.776;2023-01-29T11:17:17;96338.47;;;1.23;79.29
34185;BME280;20454;48.100;11.776;2023-01-29T11:19:45;96326.69;;;1.22;78.48
34185;BME280;20454;48.100;11.776;2023-01-29T11:22:13;96328.81;;;1.20;77.66
34185;BME280;20454;48.100;11.776;2023-01-29T11:24:39;96333.50;;;1.20;78.43
34185;BME280;20454;48.100;11.776;2023-01-29T16:02:40;96121.38;;;0.71;87.14
34185;BME280;20454;48.100;11.776;2023-01-29T16:05:12;96130.78;;;0.75;88.09
34185;BME280;20454;48.100;11.776;2023-01-29T16:07:38;96125.63;;;0.79;88.06
34185;BME280;20454;48.100;11.776;2023-01-29T16:10:05;96140.75;;;0.81;88.76
34185;BME280;20454;48.100;11.776;2023-01-29T16:12:32;96131.94;;;0.79;88.71
34185;BME280;20454;48.100;11.776;2023-01-29T16:14:58;96135.28;;;0.81;88.89
34185;BME280;20454;48.100;11.776;2023-01-29T16:17:32;96145.38;;;0.81;88.54
34185;BME280;20454;48.100;11.776;2023-01-29T16:20:04;96134.94;;;0.78;88.71
34185;BME280;20454;48.100;11.776;2023-01-29T16:22:32;96141.22;;;0.78;87.77
34185;BME280;20454;48.100;11.776;2023-01-29T16:25:06;96137.00;;;0.71;87.92
34185;BME280;20454;48.100;11.776;2023-01-29T16:27:36;96155.88;;;0.72;87.98
34185;BME280;20454;48.100;11.776;2023-01-29T16:30:04;96148.53;;;0.73;87.41
34185;BME280;20454;48.100;11.776;2023-01-29T16:32:30;96149.25;;;0.68;86.98
34185;BME280;20454;48.100;11.776;2023-01-29T16:34:57;96151.16;;;0.68;87.12
34185;BME280;20454;48.100;11.776;2023-01-29T16:37:31;96154.50;;;0.70;86.82
34185;BME280;20454;48.100;11.776;2023-01-29T16:39:58;96164.84;;;0.68;86.31
34185;BME280;20454;48.100;11.776;2023-01-29T16:42:28;96158.69;;;0.61;85.99
34185;BME280;20454;48.100;11.776;2023-01-29T16:44:59;96169.41;;;0.62;85.63
34185;BME280;20454;48.100;11.776;2023-01-29T16:47:38;96175.09;;;0.61;86.10
34185;BME280;20454;48.100;11.776;2023-01-29T16:50:31;96181.19;;;0.63;86.78
34185;BME280;20454;48.100;11.776;2023-01-29T16:53:19;96184.75;;;0.63;87.05
34185;BME280;20454;48.100;11.776;2023-01-29T16:55:47;96188.78;;;0.61;87.05
34185;BME280;20454;48.100;11.776;2023-01-29T16:58:24;96183.31;;;0.61;86.83
34185;BME280;20454;48.100;11.776;2023-01-29T17:00:58;96188.66;;;0.67;86.73
34185;BME280;20454;48.100;11.776;2023-01-29T17:03:26;96184.41;;;0.60;86.75
34185;BME280;20454;48.100;11.776;2023-01-29T17:05:53;96187.72;;;0.62;86.95
34185;BME280;20454;48.100;11.776;2023-01-29T17:08:23;96200.34;;;0.63;87.37
34185;BME280;20454;48.100;11.776;2023-01-29T17:10:50;96185.97;;;0.56;87.71
34185;BME280;20454;48.100;11.776;2023-01-29T17:13:39;96188.22;;;0.59;87.22
34185;BME280;20454;48.100;11.776;2023-01-29T17:18:44;96196.31;;;0.54;86.51
34185;BME280;20454;48.100;11.776;2023-01-29T20:04:25;96132.44;;;-0.65;88.22
34185;BME280;20454;48.100;11.776;2023-01-29T20:06:51;96153.56;;;-0.49;88.37
34185;BME280;20454;48.100;11.776;2023-01-29T20:09:17;96137.19;;;-0.60;88.96
34185;BME280;20454;48.100;11.776;2023-01-29T20:11:43;96153.13;;;-0.57;89.23
34185;BME280;20454;48.100;11.776;2023-01-29T20:14:08;96145.38;;;-0.60;89.40
34185;BME280;20454;48.100;11.776;2023-01-29T20:16:35;96145.50;;;-0.67;89.04
34185;BME280;20454;48.100;11.776;2023-01-29T20:19:01;96146.81;;;-0.69;89.29
34185;BME280;20454;48.100;11.776;2023-01-29T20:21:26;96147.03;;;-0.71;89.38
34185;BME280;20454;48.100;11.776;2023-01-29T20:23:52;96147.53;;;-0.74;89.71
34185;BME280;20454;48.100;11.776;2023-01-29T20:26:18;96153.44;;;-0.77;89.61
34185;BME280;20454;48.100;11.776;2023-01-29T20:28:45;96143.22;;;-0.81;90.45
34185;BME280;20454;48.100;11.776;2023-01-29T20:31:12;96146.22;;;-0.83;90.31
34185;BME280;20454;48.100;11.776;2023-01-29T20:33:38;96146.09;;;-0.88;90.50
34185;BME280;20454;48.100;11.776;2023-01-29T20:36:06;96157.38;;;-0.84;90.46
34185;BME280;20454;48.100;11.776;2023-01-29T20:38:32;96147.97;;;-0.88;90.87
34185;BME280;20454;48.100;11.776;2023-01-29T20:41:07;96144.75;;;-0.97;90.53
34185;BME280;20454;48.100;11.776;2023-01-29T20:43:33;96146.91;;;-0.99;90.97
34185;BME280;20454;48.100;11.776;2023-01-29T20:46:00;96150.91;;;-1.01;90.90
34185;BME280;20454;48.100;11.776;2023-01-29T20:48:26;96151.63;;;-1.06;90.86
34185;BME280;20454;48.100;11.776;2023-01-29T20:50:52;96148.09;;;-1.06;91.50
34185;BME280;20454;48.100;11.776;2023-01-29T20:53:18;96152.94;;;-1.08;91.35
34185;BME280;20454;48.100;11.776;2023-01-29T20:55:44;96144.84;;;-1.15;91.50
34185;BME280;20454;48.100;11.776;2023-01-29T20:58:10;96146.38;;;-1.19;91.46
34185;BME280;20454;48.100;11.776;2023-01-29T21:00:35;96145.78;;;-1.21;91.88
34185;BME280;20454;48.100;11.776;2023-01-29T21:03:01;96142.09;;;-1.26;92.01
34185;BME280;20454;48.100;11.776;2023-01-29T21:05:27;96135.66;;;-1.32;92.00
34185;BME280;20454;48.100;11.776;2023-01-29T21:07:52;96130.47;;;-1.33;91.80
34185;BME280;20454;48.100;11.776;2023-01-29T21:10:18;96130.91;;;-1.36;92.67
34185;BME280;20454;48.100;11.776;2023-01-29T21:12:44;96131.97;;;-1.37;92.16
34185;BME280;20454;48.100;11.776;2023-01-29T21:15:10;96118.31;;;-1.49;93.21
34185;BME280;20454;48.100;11.776;2023-01-29T21:17:35;96119.75;;;-1.46;93.23
34185;BME280;20454;48.100;11.776;2023-01-29T21:20:01;96119.16;;;-1.48;93.27
34185;BME280;20454;48.100;11.776;2023-01-29T21:22:29;96113.56;;;-1.53;93.19
34185;BME280;20454;48.100;11.776;2023-01-29T21:24:55;96126.13;;;-1.52;93.51
34185;BME280;20454;48.100;11.776;2023-01-29T21:27:20;96127.19;;;-1.53;93.90
34185;BME280;20454;48.100;11.776;2023-01-29T21:29:46;96127.28;;;-1.60;93.75
34185;BME280;20454;48.100;11.776;2023-01-29T21:32:12;96132.97;;;-1.61;94.16
34185;BME280;20454;48.100;11.776;2023-01-29T21:34:38;96135.47;;;-1.60;93.89
34185;BME280;20454;48.100;11.776;2023-01-29T21:37:04;96129.03;;;-1.65;94.02
34185;BME280;20454;48.100;11.776;2023-01-29T21:39:29;96137.31;;;-1.72;94.34
34185;BME280;20454;48.100;11.776;2023-01-29T21:41:55;96139.00;;;-1.71;94.20
34185;BME280;20454;48.100;11.776;2023-01-29T21:44:39;96141.94;;;-1.72;94.20
34185;BME280;20454;48.100;11.776;2023-01-29T21:47:05;96136.97;;;-1.75;94.19
34185;BME280;20454;48.100;11.776;2023-01-29T21:49:40;96140.50;;;-1.75;94.09
34185;BME280;20454;48.100;11.776;2023-01-29T21:52:06;96123.63;;;-1.83;94.32
34185;BME280;20454;48.100;11.776;2023-01-29T21:54:32;96133.25;;;-1.81;94.02
34185;BME280;20454;48.100;11.776;2023-01-29T21:57:03;96124.09;;;-1.86;94.05
34185;BME280;20454;48.100;11.776;2023-01-29T21:59:32;96132.28;;;-1.86;94.41
34185;BME280;20454;48.100;11.776;2023-01-29T22:01:58;96125.38;;;-1.89;94.22
34185;BME280;20454;48.100;11.776;2023-01-29T22:04:24;96116.84;;;-1.92;94.42
34185;BME280;20454;48.100;11.776;2023-01-29T22:06:49;96121.84;;;-1.89;93.98
34185;BME280;20454;48.100;11.776;2023-01-29T22:09:15;96114.94;;;-1.92;94.26
34185;BME280;20454;48.100;11.776;2023-01-29T22:11:41;96113.50;;;-1.94;94.32
34185;BME280;20454;48.100;11.776;2023-01-29T22:14:06;96115.28;;;-2.00;94.61
34185;BME280;20454;48.100;11.776;2023-01-29T22:16:32;96112.56;;;-2.00;94.63
34185;BME280;20454;48.100;11.776;2023-01-29T22:18:58;96116.09;;;-1.99;94.72
34185;BME280;20454;48.100;11.776;2023-01-29T22:21:24;96112.78;;;-2.01;94.71
34185;BME280;20454;48.100;11.776;2023-01-29T22:23:50;96111.13;;;-2.02;94.91
34185;BME280;20454;48.100;11.776;2023-01-29T22:26:15;96105.28;;;-2.06;94.63
34185;BME280;20454;48.100;11.776;2023-01-29T22:28:42;96103.47;;;-2.12;94.67
34185;BME280;20454;48.100;11.776;2023-01-29T22:31:08;96095.53;;;-2.13;95.12
34185;BME280;20454;48.100;11.776;2023-01-29T22:33:33;96085.31;;;-2.18;94.59
34185;BME280;20454;48.100;11.776;2023-01-29T22:35:59;96095.16;;;-2.17;94.53
34185;BME280;20454;48.100;11.776;2023-01-29T22:38:25;96091.63;;;-2.17;95.11
34185;BME280;20454;48.100;11.776;2023-01-29T22:40:54;96080.34;;;-2.21;95.47
34185;BME280;20454;48.100;11.776;2023-01-29T22:43:21;96078.28;;;-2.25;95.34
34185;BME280;20454;48.100;11.776;2023-01-29T22:45:47;96075.13;;;-2.22;95.08
34185;BME280;20454;48.100;11.776;2023-01-29T22:48:13;96070.09;;;-2.25;95.54
34185;BME280;20454;48.100;11.776;2023-01-29T22:50:39;96076.41;;;-2.25;95.70
34185;BME280;20454;48.100;11.776;2023-01-29T22:53:05;96074.75;;;-2.26;95.91
34185;BME280;20454;48.100;11.776;2023-01-29T22:55:31;96066.78;;;-2.27;95.40
34185;BME280;20454;48.100;11.776;2023-01-29T22:57:57;96054.00;;;-2.27;95.15
34185;BME280;20454;48.100;11.776;2023-01-29T23:00:23;96062.19;;;-2.27;95.54
34185;BME280;20454;48.100;11.776;2023-01-29T23:02:50;96060.75;;;-2.29;95.52
34185;BME280;20454;48.100;11.776;2023-01-29T23:05:16;96056.13;;;-2.29;94.95
34185;BME280;20454;48.100;11.776;2023-01-29T23:07:42;96055.75;;;-2.32;95.28
34185;BME280;20454;48.100;11.776;2023-01-29T23:10:10;96047.19;;;-2.36;95.06
34185;BME280;20454;48.100;11.776;2023-01-29T23:12:37;96036.19;;;-2.41;95.20
34185;BME280;20454;48.100;11.776;2023-01-29T23:15:03;96030.59;;;-2.46;95.09
34185;BME280;20454;48.100;11.776;2023-01-29T23:17:29;96034.75;;;-2.43;95.30
34185;BME280;20454;48.100;11.776;2023-01-29T23:19:55;96041.94;;;-2.49;95.07
34185;BME280;20454;48.100;11.776;2023-01-29T23:22:20;96044.19;;;-2.46;95.12
34185;BME280;20454;48.100;11.776;2023-01-29T23:24:46;96038.38;;;-2.49;95.31
34185;BME280;20454;48.100;11.776;2023-01-29T23:27:11;96037.16;;;-2.53;95.66
34185;BME280;20454;48.100;11.776;2023-01-29T23:29:42;96024.84;;;-2.56;95.53
34185;BME280;20454;48.100;11.776;2023-01-29T23:32:08;96025.66;;;-2.55;95.73
34185;BME280;20454;48.100;11.776;2023-01-29T23:34:34;96020.44;;;-2.57;95.87
34185;BME280;20454;48.100;11.776;2023-01-29T23:36:59;96017.50;;;-2.55;95.86
34185;BME280;20454;48.100;11.776;2023-01-29T23:39:25;96009.19;;;-2.60;95.65
34185;BME280;20454;48.100;11.776;2023-01-29T23:41:50;96020.00;;;-2.54;95.64
34185;BME280;20454;48.100;11.776;2023-01-29T23:44:16;96007.69;;;-2.56;95.67
34185;BME280;20454;48.100;11.776;2023-01-29T23:46:42;96005.66;;;-2.61;95.27
34185;BME280;20454;48.100;11.776;2023-01-29T23:49:08;96008.38;;;-2.61;95.63
34185;BME280;20454;48.100;11.776;2023-01-29T23:51:34;96008.59;;;-2.62;95.79
34185;BME280;20454;48.100;11.776;2023-01-29T23:53:59;96010.63;;;-2.58;95.53
34185;BME280;20454;48.100;11.776;2023-01-29T23:56:25;96014.63;;;-2.60;95.44
34185;BME280;20454;48.100;11.776;2023-01-29T23:58:55;96004.22;;;-2.63;95.22
